Time;durP1;ratioP1;P1;durP2;ratioP2;P2;SDS_P1;SDS_P2;PMS_P1;PMS_P2;Temp;Humidity;BMP_temperature;BMP_pressure;BME280_temperature;BME280_humidity;BME280_pressure;Samples;Min_cycle;Max_cycle;Signal;HPM_P1;HPM_P2
2022/03/12 00:01:25;;;;;;;;;;;22.40;99.90;;;;;;5055867;28;19915;-69
2022/03/12 00:03:53;;;;;;;;;;;22.40;99.90;;;;;;5055376;28;19909;-69
2022/03/12 00:06:21;;;;;;;;;;;22.40;99.90;;;;;;5054862;28;20004;-69
2022/03/12 00:08:48;;;;;;;;;;;22.30;99.90;;;;;;5055490;28;19947;-68
2022/03/12 00:11:16;;;;;;;;;;;22.50;99.90;;;;;;5055496;28;19915;-69
2022/03/12 00:13:43;;;;;;;;;;;22.60;99.90;;;;;;5055365;28;19960;-70
2022/03/12 00:16:13;;;;;;;;;;;22.80;99.90;;;;;;5055049;28;19980;-69
2022/03/12 00:18:44;;;;;;;;;;;23.00;99.90;;;;;;5055108;28;19928;-70
2022/03/12 00:21:13;;;;;;;;;;;23.00;99.90;;;;;;5054980;28;19909;-70
2022/03/12 00:23:42;;;;;;;;;;;23.10;99.90;;;;;;5037176;28;19915;-70
2022/03/12 00:26:11;;;;;;;;;;;23.10;99.90;;;;;;5054970;28;19951;-69
2022/03/12 00:28:38;;;;;;;;;;;23.20;99.90;;;;;;5054984;28;19916;-68
2022/03/12 00:31:05;;;;;;;;;;;23.30;99.90;;;;;;5054946;28;19909;-69
2022/03/12 00:33:32;;;;;;;;;;;23.20;99.90;;;;;;5037196;28;19924;-69
2022/03/12 00:36:00;;;;;;;;;;;23.20;99.90;;;;;;5054490;28;19955;-69
2022/03/12 00:38:27;;;;;;;;;;;23.00;99.90;;;;;;5054662;28;19967;-69
2022/03/12 00:40:54;;;;;;;;;;;23.10;99.90;;;;;;5049833;28;19999;-69
2022/03/12 00:43:21;;;;;;;;;;;23.40;99.90;;;;;;5037276;28;20228;-69
2022/03/12 00:45:48;;;;;;;;;;;23.40;99.90;;;;;;5054973;28;19916;-68
2022/03/12 00:48:16;;;;;;;;;;;23.30;99.90;;;;;;5054974;28;19963;-68
2022/03/12 00:50:43;;;;;;;;;;;23.20;99.90;;;;;;5054845;28;19921;-69
2022/03/12 00:53:09;;;;;;;;;;;23.30;99.90;;;;;;5054626;28;20349;-69
2022/03/12 00:55:36;;;;;;;;;;;23.30;99.90;;;;;;5054790;28;20371;-69
2022/03/12 00:58:03;;;;;;;;;;;23.20;99.90;;;;;;5053992;28;20282;-70
2022/03/12 01:00:31;;;;;;;;;;;23.10;99.90;;;;;;5054371;28;19908;-69
2022/03/12 01:02:57;;;;;;;;;;;23.00;99.90;;;;;;5054267;28;19963;-69
2022/03/12 01:05:42;;;;;;;;;;;23.00;99.90;;;;;;5054294;28;19908;-69
2022/03/12 01:08:08;;;;;;;;;;;23.00;99.90;;;;;;5054142;28;19913;-69
2022/03/12 01:10:35;;;;;;;;;;;22.90;99.90;;;;;;5054207;28;19996;-69
2022/03/12 01:13:02;;;;;;;;;;;23.00;99.90;;;;;;5054210;28;19953;-69
2022/03/12 01:15:28;;;;;;;;;;;23.00;99.90;;;;;;5054122;28;19954;-69
2022/03/12 01:17:55;;;;;;;;;;;23.00;99.90;;;;;;5053822;28;19920;-69
2022/03/12 01:20:24;;;;;;;;;;;22.90;99.90;;;;;;5054298;28;20266;-69
2022/03/12 01:22:51;;;;;;;;;;;22.90;99.90;;;;;;5054096;28;19915;-69
2022/03/12 01:25:18;;;;;;;;;;;22.90;99.90;;;;;;5053976;28;19909;-69
2022/03/12 01:27:45;;;;;;;;;;;22.80;99.90;;;;;;5053885;28;19909;-69
2022/03/12 01:30:12;;;;;;;;;;;22.70;99.90;;;;;;5053949;28;19913;-68
2022/03/12 01:32:38;;;;;;;;;;;22.70;99.90;;;;;;5053789;28;20069;-69
2022/03/12 01:35:06;;;;;;;;;;;22.70;99.90;;;;;;5053690;28;19993;-69
2022/03/12 01:37:32;;;;;;;;;;;22.60;99.90;;;;;;5053741;28;19936;-69
2022/03/12 01:39:59;;;;;;;;;;;22.50;99.90;;;;;;5053642;28;19936;-69
2022/03/12 01:42:27;;;;;;;;;;;22.40;99.90;;;;;;5053701;28;19952;-69
2022/03/12 01:44:54;;;;;;;;;;;22.30;99.90;;;;;;5053524;28;20310;-68
2022/03/12 01:47:22;;;;;;;;;;;22.30;99.90;;;;;;5053559;28;19912;-68
2022/03/12 01:49:49;;;;;;;;;;;22.40;99.90;;;;;;5053589;28;20390;-68
2022/03/12 01:52:16;;;;;;;;;;;22.40;99.90;;;;;;5053315;28;20015;-68
2022/03/12 01:54:43;;;;;;;;;;;22.50;99.90;;;;;;5053226;28;19958;-70
2022/03/12 01:57:10;;;;;;;;;;;22.70;99.90;;;;;;5053387;28;19909;-69
2022/03/12 01:59:37;;;;;;;;;;;22.80;99.90;;;;;;5053180;28;20337;-69
2022/03/12 02:02:08;;;;;;;;;;;23.00;99.90;;;;;;5052936;28;19920;-68
2022/03/12 02:04:37;;;;;;;;;;;23.20;99.90;;;;;;5053157;28;19991;-69
2022/03/12 02:07:03;;;;;;;;;;;23.30;99.90;;;;;;5053395;28;19909;-69
2022/03/12 02:09:30;;;;;;;;;;;23.50;99.90;;;;;;5052359;28;19954;-69
2022/03/12 02:11:57;;;;;;;;;;;23.60;99.90;;;;;;5052969;28;20278;-69
2022/03/12 02:14:25;;;;;;;;;;;23.70;99.90;;;;;;5052896;28;20000;-69
2022/03/12 02:16:56;;;;;;;;;;;23.60;99.90;;;;;;5044773;28;19952;-69
2022/03/12 02:19:25;;;;;;;;;;;23.60;99.90;;;;;;5052828;28;19919;-69
2022/03/12 02:21:52;;;;;;;;;;;23.70;99.90;;;;;;5052871;28;19909;-69
2022/03/12 02:24:19;;;;;;;;;;;23.60;99.90;;;;;;5052226;28;19909;-69
2022/03/12 02:26:46;;;;;;;;;;;23.60;99.90;;;;;;5052886;28;20385;-68
2022/03/12 02:29:18;;;;;;;;;;;23.80;99.90;;;;;;5052932;28;20347;-69
2022/03/12 02:32:10;;;;;;;;;;;23.60;99.90;;;;;;5052720;28;20004;-69
2022/03/12 02:34:42;;;;;;;;;;;23.40;99.90;;;;;;5041322;28;20042;-68
2022/03/12 02:37:09;;;;;;;;;;;23.50;99.90;;;;;;5052656;28;19909;-69
2022/03/12 02:39:38;;;;;;;;;;;23.50;99.90;;;;;;5052818;28;20355;-68
2022/03/12 02:42:06;;;;;;;;;;;23.50;99.90;;;;;;5052790;28;19909;-68
2022/03/12 02:44:33;;;;;;;;;;;23.50;99.90;;;;;;5052386;28;20035;-69
2022/03/12 02:47:06;;;;;;;;;;;23.50;99.90;;;;;;5052808;28;19913;-69
2022/03/12 02:49:37;;;;;;;;;;;23.60;99.90;;;;;;5052638;28;19909;-68
2022/03/12 02:52:04;;;;;;;;;;;23.70;99.90;;;;;;5052059;28;19980;-69
2022/03/12 02:54:31;;;;;;;;;;;23.80;99.90;;;;;;5052209;28;20375;-69
2022/03/12 02:57:00;;;;;;;;;;;23.80;99.90;;;;;;5052350;28;19917;-68
2022/03/12 02:59:27;;;;;;;;;;;23.70;99.90;;;;;;5052351;28;19959;-68
2022/03/12 03:01:56;;;;;;;;;;;23.70;99.90;;;;;;5052275;28;19955;-68
2022/03/12 03:04:23;;;;;;;;;;;23.60;99.90;;;;;;5052252;28;20385;-68
2022/03/12 03:06:49;;;;;;;;;;;23.70;99.90;;;;;;5052130;28;20396;-69
2022/03/12 03:09:16;;;;;;;;;;;23.70;99.90;;;;;;5052094;28;19996;-69
2022/03/12 03:11:43;;;;;;;;;;;23.70;99.90;;;;;;5052387;28;20389;-68
2022/03/12 03:14:11;;;;;;;;;;;23.70;99.90;;;;;;5052185;28;20290;-68
2022/03/12 03:16:39;;;;;;;;;;;23.70;99.90;;;;;;5052044;28;20007;-69
2022/03/12 03:19:07;;;;;;;;;;;23.60;99.90;;;;;;5052187;28;19921;-69
2022/03/12 03:21:34;;;;;;;;;;;23.70;99.90;;;;;;5036365;28;20425;-69
2022/03/12 03:24:01;;;;;;;;;;;23.80;99.90;;;;;;5056166;28;20278;-69
2022/03/12 03:26:34;;;;;;;;;;;23.60;99.90;;;;;;5056533;28;20295;-69
2022/03/12 03:29:00;;;;;;;;;;;23.60;99.90;;;;;;5056024;28;19909;-68
2022/03/12 03:31:27;;;;;;;;;;;23.60;99.90;;;;;;5056147;28;20004;-69
2022/03/12 03:33:53;;;;;;;;;;;23.60;99.90;;;;;;5056034;28;19923;-69
2022/03/12 03:36:20;;;;;;;;;;;23.60;99.90;;;;;;5055781;28;19908;-69
2022/03/12 03:38:47;;;;;;;;;;;23.50;99.90;;;;;;5055794;28;19912;-68
2022/03/12 03:41:14;;;;;;;;;;;23.60;99.90;;;;;;5056137;28;19909;-69
2022/03/12 03:43:45;;;;;;;;;;;23.50;99.90;;;;;;5055790;28;19912;-69
2022/03/12 03:46:12;;;;;;;;;;;23.40;99.90;;;;;;5055522;28;19919;-69
2022/03/12 03:48:39;;;;;;;;;;;23.40;99.90;;;;;;5055894;28;19909;-70
2022/03/12 03:51:05;;;;;;;;;;;23.40;99.90;;;;;;5055832;28;19932;-70
2022/03/12 03:53:32;;;;;;;;;;;23.60;99.90;;;;;;5055225;28;19917;-69
2022/03/12 03:56:00;;;;;;;;;;;23.50;99.90;;;;;;5055732;28;19931;-69
2022/03/12 03:58:32;;;;;;;;;;;23.70;99.90;;;;;;5055692;28;19955;-70
2022/03/12 04:01:00;;;;;;;;;;;23.60;99.90;;;;;;5055732;28;19908;-70
2022/03/12 04:03:32;;;;;;;;;;;23.60;99.90;;;;;;5055240;28;19913;-70
2022/03/12 04:06:01;;;;;;;;;;;23.60;99.90;;;;;;5055570;28;19909;-70
2022/03/12 04:08:29;;;;;;;;;;;23.60;99.90;;;;;;5055185;28;19909;-70
2022/03/12 04:10:55;;;;;;;;;;;23.50;99.90;;;;;;5055376;28;19936;-68
2022/03/12 04:13:22;;;;;;;;;;;23.60;99.90;;;;;;5055568;28;19921;-69
2022/03/12 04:15:50;;;;;;;;;;;23.60;99.90;;;;;;5055307;28;19995;-69
2022/03/12 04:18:18;;;;;;;;;;;23.50;99.90;;;;;;5054918;28;20298;-69
2022/03/12 04:20:48;;;;;;;;;;;23.50;99.90;;;;;;5055056;28;19913;-69
2022/03/12 04:23:18;;;;;;;;;;;23.50;99.90;;;;;;5054879;28;19913;-69
2022/03/12 04:25:46;;;;;;;;;;;23.40;99.90;;;;;;5053951;28;19909;-69
2022/03/12 04:28:12;;;;;;;;;;;23.50;99.90;;;;;;5054842;28;20018;-69
2022/03/12 04:30:39;;;;;;;;;;;23.40;99.90;;;;;;5054849;28;20039;-69
2022/03/12 04:33:07;;;;;;;;;;;23.50;99.90;;;;;;5054086;28;19917;-69
2022/03/12 04:35:34;;;;;;;;;;;23.50;99.90;;;;;;5054951;28;19909;-69
2022/03/12 04:38:01;;;;;;;;;;;23.30;99.90;;;;;;5055068;28;19927;-69
2022/03/12 04:40:29;;;;;;;;;;;23.40;99.90;;;;;;5054970;28;19954;-69
2022/03/12 04:42:55;;;;;;;;;;;23.40;99.90;;;;;;5054692;28;20000;-69
2022/03/12 04:45:26;;;;;;;;;;;23.30;99.90;;;;;;5055005;28;19913;-69
2022/03/12 04:47:54;;;;;;;;;;;23.40;99.90;;;;;;5054854;28;19939;-69
2022/03/12 04:50:21;;;;;;;;;;;23.30;99.90;;;;;;5054519;28;19915;-70
2022/03/12 04:52:49;;;;;;;;;;;23.30;99.90;;;;;;5054238;28;19923;-69
2022/03/12 04:55:17;;;;;;;;;;;23.40;99.90;;;;;;5054677;28;19916;-70
2022/03/12 04:57:44;;;;;;;;;;;23.40;99.90;;;;;;5054548;28;19959;-70
2022/03/12 05:00:14;;;;;;;;;;;23.40;99.90;;;;;;5054089;28;20375;-70
2022/03/12 05:02:42;;;;;;;;;;;23.30;99.90;;;;;;5054422;28;19986;-70
2022/03/12 05:05:12;;;;;;;;;;;23.30;99.90;;;;;;5054383;28;20445;-69
2022/03/12 05:07:43;;;;;;;;;;;23.30;99.90;;;;;;5054277;28;19952;-69
2022/03/12 05:10:10;;;;;;;;;;;23.20;99.90;;;;;;5054098;28;19916;-70
2022/03/12 05:12:40;;;;;;;;;;;23.30;99.90;;;;;;5054309;28;19913;-69
2022/03/12 05:15:11;;;;;;;;;;;23.20;99.90;;;;;;5054191;28;19920;-69
2022/03/12 05:17:43;;;;;;;;;;;23.20;99.90;;;;;;5053637;28;20359;-69
2022/03/12 05:20:10;;;;;;;;;;;23.10;99.90;;;;;;5053933;28;19909;-71
2022/03/12 05:22:36;;;;;;;;;;;23.10;99.90;;;;;;5054115;28;19912;-71
2022/03/12 05:25:04;;;;;;;;;;;23.10;99.90;;;;;;5053902;28;19916;-69
2022/03/12 05:27:32;;;;;;;;;;;23.10;99.90;;;;;;5053960;28;19931;-70
2022/03/12 05:29:59;;;;;;;;;;;23.10;99.90;;;;;;5053984;28;19916;-70
2022/03/12 05:32:26;;;;;;;;;;;23.10;99.90;;;;;;5053631;28;19913;-68
2022/03/12 05:34:52;;;;;;;;;;;23.10;99.90;;;;;;5053813;28;19920;-69
2022/03/12 05:37:22;;;;;;;;;;;23.10;99.90;;;;;;5053610;28;20359;-69
2022/03/12 05:39:51;;;;;;;;;;;23.10;99.90;;;;;;5053587;28;19908;-69
2022/03/12 05:42:22;;;;;;;;;;;23.10;99.90;;;;;;5053490;28;19954;-69
2022/03/12 05:44:51;;;;;;;;;;;23.10;99.90;;;;;;5052653;28;19908;-70
2022/03/12 05:47:20;;;;;;;;;;;23.10;99.90;;;;;;5053429;28;19916;-69
2022/03/12 05:49:48;;;;;;;;;;;23.00;99.90;;;;;;5053324;28;20342;-69
2022/03/12 05:52:16;;;;;;;;;;;23.00;99.90;;;;;;5052978;28;20363;-70
2022/03/12 05:54:45;;;;;;;;;;;23.00;99.90;;;;;;5053506;28;19908;-69
2022/03/12 05:57:13;;;;;;;;;;;23.00;99.90;;;;;;5053564;28;20347;-69
2022/03/12 05:59:40;;;;;;;;;;;23.00;99.90;;;;;;5053384;28;19909;-68
2022/03/12 06:02:07;;;;;;;;;;;22.80;99.90;;;;;;5053120;28;19996;-70
2022/03/12 06:04:34;;;;;;;;;;;22.80;99.90;;;;;;5053090;28;20303;-67
2022/03/12 06:07:01;;;;;;;;;;;22.80;99.90;;;;;;5053306;28;19909;-69
2022/03/12 06:09:28;;;;;;;;;;;22.80;99.90;;;;;;5053231;28;19909;-69
2022/03/12 06:11:55;;;;;;;;;;;22.90;99.90;;;;;;5053175;28;19915;-69
2022/03/12 06:14:22;;;;;;;;;;;22.80;99.90;;;;;;5055123;28;20382;-69
2022/03/12 06:16:48;;;;;;;;;;;22.80;99.90;;;;;;5072704;28;20019;-69
2022/03/12 06:19:16;;;;;;;;;;;22.80;99.90;;;;;;5072863;28;19919;-70
2022/03/12 06:21:43;;;;;;;;;;;22.80;99.90;;;;;;5072903;28;20003;-68
2022/03/12 06:24:09;;;;;;;;;;;22.80;99.90;;;;;;5072533;28;20026;-69
2022/03/12 06:26:39;;;;;;;;;;;22.90;99.90;;;;;;5072939;28;19966;-69
2022/03/12 06:29:11;;;;;;;;;;;22.80;99.90;;;;;;5072333;28;20355;-69
2022/03/12 06:31:38;;;;;;;;;;;22.80;99.90;;;;;;5072857;28;19908;-69
2022/03/12 06:34:05;;;;;;;;;;;22.80;99.90;;;;;;5072622;28;19955;-69
2022/03/12 06:36:32;;;;;;;;;;;22.70;99.90;;;;;;5072625;28;19931;-68
2022/03/12 06:38:59;;;;;;;;;;;22.70;99.90;;;;;;5072457;28;20314;-69
2022/03/12 06:41:26;;;;;;;;;;;22.60;99.90;;;;;;5072627;28;19909;-69
2022/03/12 06:43:53;;;;;;;;;;;22.60;99.90;;;;;;5072015;28;20030;-69
2022/03/12 06:46:20;;;;;;;;;;;22.60;99.90;;;;;;5072470;28;19908;-68
2022/03/12 06:48:47;;;;;;;;;;;22.60;99.90;;;;;;5072070;28;20003;-68
2022/03/12 06:51:14;;;;;;;;;;;22.50;99.90;;;;;;5071998;28;19909;-68
2022/03/12 06:53:41;;;;;;;;;;;22.40;99.90;;;;;;5072373;28;19916;-68
2022/03/12 06:56:07;;;;;;;;;;;22.40;99.90;;;;;;5071911;28;19947;-69
2022/03/12 06:58:35;;;;;;;;;;;22.30;99.90;;;;;;5071633;28;19959;-69
2022/03/12 07:01:02;;;;;;;;;;;22.30;99.90;;;;;;5072689;28;19915;-69
2022/03/12 07:03:29;;;;;;;;;;;22.30;99.90;;;;;;5072423;28;19909;-69
2022/03/12 07:05:56;;;;;;;;;;;22.30;99.90;;;;;;5072329;28;19909;-69
2022/03/12 07:08:23;;;;;;;;;;;22.20;99.90;;;;;;5072202;28;20366;-68
2022/03/12 07:10:50;;;;;;;;;;;22.20;99.90;;;;;;5072321;28;19916;-68
2022/03/12 07:13:17;;;;;;;;;;;22.20;99.90;;;;;;5071605;28;20338;-68
2022/03/12 07:15:44;;;;;;;;;;;22.20;99.90;;;;;;5072290;28;19919;-68
2022/03/12 07:18:10;;;;;;;;;;;22.20;99.90;;;;;;5071885;28;19928;-68
2022/03/12 07:20:37;;;;;;;;;;;22.20;99.90;;;;;;5072213;28;19908;-69
2022/03/12 07:23:05;;;;;;;;;;;22.10;99.90;;;;;;5071833;28;19909;-69
2022/03/12 07:25:32;;;;;;;;;;;22.10;99.90;;;;;;5072229;28;19909;-69
2022/03/12 07:28:00;;;;;;;;;;;22.00;99.90;;;;;;5071634;28;20007;-69
2022/03/12 07:30:27;;;;;;;;;;;22.00;99.90;;;;;;5072013;28;20378;-69
2022/03/12 07:32:53;;;;;;;;;;;21.90;99.90;;;;;;5072010;28;19924;-69
2022/03/12 07:35:20;;;;;;;;;;;21.90;99.90;;;;;;5072057;28;19990;-69
2022/03/12 07:37:49;;;;;;;;;;;21.90;99.90;;;;;;5071827;28;19913;-69
2022/03/12 07:40:16;;;;;;;;;;;21.90;99.90;;;;;;5071512;28;19963;-69
2022/03/12 07:42:44;;;;;;;;;;;21.80;99.90;;;;;;5071635;28;19908;-70
2022/03/12 07:45:11;;;;;;;;;;;21.80;99.90;;;;;;5071893;28;19915;-69
2022/03/12 07:47:38;;;;;;;;;;;21.80;99.90;;;;;;5071985;28;19913;-69
2022/03/12 07:50:06;;;;;;;;;;;21.80;99.90;;;;;;5071315;28;19987;-69
2022/03/12 07:52:32;;;;;;;;;;;21.70;99.90;;;;;;5071729;28;19912;-69
2022/03/12 07:54:59;;;;;;;;;;;21.70;99.90;;;;;;5071677;28;19974;-68
2022/03/12 07:57:28;;;;;;;;;;;21.60;99.90;;;;;;5071724;28;19916;-68
2022/03/12 07:59:55;;;;;;;;;;;21.60;99.90;;;;;;5071963;28;19915;-68
2022/03/12 08:02:21;;;;;;;;;;;21.50;99.90;;;;;;5071619;28;20265;-68
2022/03/12 08:04:48;;;;;;;;;;;21.50;99.90;;;;;;5071850;28;19908;-68
2022/03/12 08:07:15;;;;;;;;;;;21.50;99.90;;;;;;5071205;28;19916;-68
2022/03/12 08:09:41;;;;;;;;;;;21.40;99.90;;;;;;5075202;28;19908;-69
2022/03/12 08:12:08;;;;;;;;;;;21.40;99.90;;;;;;5075272;28;19908;-68
2022/03/12 08:14:35;;;;;;;;;;;21.30;99.90;;;;;;5075597;28;19912;-69
2022/03/12 08:17:01;;;;;;;;;;;21.30;99.90;;;;;;5074820;28;20449;-69
2022/03/12 08:19:28;;;;;;;;;;;21.30;99.90;;;;;;5075432;28;19948;-68
2022/03/12 08:21:56;;;;;;;;;;;21.30;99.90;;;;;;5074683;28;20010;-69
2022/03/12 08:24:23;;;;;;;;;;;21.30;99.90;;;;;;5074945;28;19974;-70
2022/03/12 08:26:50;;;;;;;;;;;21.20;99.90;;;;;;5075372;28;19908;-69
2022/03/12 08:29:21;;;;;;;;;;;21.20;99.90;;;;;;5074853;28;19916;-68
2022/03/12 08:31:49;;;;;;;;;;;21.20;99.90;;;;;;5075000;28;19908;-69
2022/03/12 08:34:15;;;;;;;;;;;21.20;99.90;;;;;;5074763;28;20314;-69
2022/03/12 08:36:45;;;;;;;;;;;21.20;99.90;;;;;;5074890;28;19912;-69
2022/03/12 08:39:15;;;;;;;;;;;21.10;99.90;;;;;;5075214;28;19912;-69
2022/03/12 08:41:42;;;;;;;;;;;21.10;99.90;;;;;;5075165;28;19909;-69
2022/03/12 08:44:09;;;;;;;;;;;21.10;99.90;;;;;;5074999;28;19962;-69
2022/03/12 08:46:36;;;;;;;;;;;21.10;99.90;;;;;;5074957;28;19908;-68
2022/03/12 08:49:03;;;;;;;;;;;21.10;99.90;;;;;;5074559;28;19931;-68
2022/03/12 08:51:30;;;;;;;;;;;21.10;99.90;;;;;;5074452;28;19915;-68
2022/03/12 08:53:57;;;;;;;;;;;21.10;99.90;;;;;;5074399;28;19973;-68
2022/03/12 08:56:24;;;;;;;;;;;21.10;99.90;;;;;;5074371;28;19920;-68
2022/03/12 08:58:50;;;;;;;;;;;21.10;99.90;;;;;;5074615;28;19909;-69
2022/03/12 09:01:18;;;;;;;;;;;21.00;99.90;;;;;;5074671;28;19909;-69
2022/03/12 09:03:45;;;;;;;;;;;21.00;99.90;;;;;;5074576;28;19917;-69
2022/03/12 09:06:12;;;;;;;;;;;21.00;99.90;;;;;;5074409;28;19999;-69
2022/03/12 09:08:39;;;;;;;;;;;21.00;99.90;;;;;;5074337;28;19983;-69
2022/03/12 09:11:05;;;;;;;;;;;21.00;99.90;;;;;;5074421;28;19908;-68
2022/03/12 09:13:32;;;;;;;;;;;21.00;99.90;;;;;;5074280;28;20392;-69
2022/03/12 09:15:59;;;;;;;;;;;20.90;99.90;;;;;;5074194;28;19915;-69
2022/03/12 09:18:26;;;;;;;;;;;20.90;99.90;;;;;;5073553;28;19974;-69
2022/03/12 09:20:53;;;;;;;;;;;20.90;99.90;;;;;;5073963;28;20000;-70
2022/03/12 09:23:21;;;;;;;;;;;20.80;99.90;;;;;;5074232;28;20290;-70
2022/03/12 09:25:48;;;;;;;;;;;20.90;99.90;;;;;;5074198;28;19911;-69
2022/03/12 09:28:15;;;;;;;;;;;20.90;99.90;;;;;;5073776;28;19912;-70
2022/03/12 09:30:42;;;;;;;;;;;20.90;99.90;;;;;;5073851;28;19908;-70
2022/03/12 09:33:10;;;;;;;;;;;20.80;99.90;;;;;;5073848;28;20251;-69
2022/03/12 09:35:36;;;;;;;;;;;20.80;99.90;;;;;;5073751;28;19912;-70
2022/03/12 09:38:03;;;;;;;;;;;20.90;99.90;;;;;;5073567;28;19908;-69
2022/03/12 09:40:30;;;;;;;;;;;20.90;99.90;;;;;;5073754;28;19940;-70
2022/03/12 09:42:58;;;;;;;;;;;20.80;99.90;;;;;;5073856;28;19908;-69
2022/03/12 09:45:25;;;;;;;;;;;20.80;99.90;;;;;;5073813;28;19916;-70
2022/03/12 09:47:51;;;;;;;;;;;20.90;99.90;;;;;;5074020;28;19916;-70
2022/03/12 09:50:18;;;;;;;;;;;20.80;99.90;;;;;;5073376;28;19909;-70
2022/03/12 09:52:45;;;;;;;;;;;20.80;99.90;;;;;;5073397;28;19916;-70
2022/03/12 09:55:12;;;;;;;;;;;20.80;99.90;;;;;;5073519;28;19909;-69
2022/03/12 09:57:39;;;;;;;;;;;20.80;99.90;;;;;;5073669;28;19909;-70
2022/03/12 10:00:06;;;;;;;;;;;20.80;99.90;;;;;;5073120;28;19931;-70
2022/03/12 10:02:33;;;;;;;;;;;20.80;99.90;;;;;;5073604;28;19909;-69
2022/03/12 10:04:59;;;;;;;;;;;20.80;99.90;;;;;;5073290;28;19916;-70
2022/03/12 10:07:26;;;;;;;;;;;20.80;99.90;;;;;;5073435;28;20430;-69
2022/03/12 10:09:53;;;;;;;;;;;20.80;99.90;;;;;;5073248;28;19909;-68
2022/03/12 10:12:20;;;;;;;;;;;20.80;99.90;;;;;;5073237;28;20255;-68
2022/03/12 10:14:50;;;;;;;;;;;20.80;99.90;;;;;;5073380;28;19913;-68
2022/03/12 10:17:19;;;;;;;;;;;20.80;99.90;;;;;;5072870;28;19977;-68
2022/03/12 10:19:47;;;;;;;;;;;20.80;99.90;;;;;;5073128;28;19908;-69
2022/03/12 10:22:14;;;;;;;;;;;20.70;99.90;;;;;;5072943;28;19913;-68
2022/03/12 10:24:41;;;;;;;;;;;20.70;99.90;;;;;;5072730;28;19908;-68
2022/03/12 10:27:08;;;;;;;;;;;20.70;99.90;;;;;;5072888;28;19908;-68
2022/03/12 10:29:38;;;;;;;;;;;20.60;99.90;;;;;;5072881;28;20281;-69
2022/03/12 10:32:23;;;;;;;;;;;20.60;99.90;;;;;;5054067;28;20373;-69
2022/03/12 10:34:56;;;;;;;;;;;20.60;99.90;;;;;;5072556;28;19951;-68
2022/03/12 10:37:27;;;;;;;;;;;20.60;99.90;;;;;;5072611;28;19916;-69
2022/03/12 10:40:09;;;;;;;;;;;20.60;99.90;;;;;;5072793;28;19954;-69
2022/03/12 10:42:37;;;;;;;;;;;20.60;99.90;;;;;;5072724;28;19915;-69
2022/03/12 10:45:09;;;;;;;;;;;20.60;99.90;;;;;;5054952;28;19908;-69
2022/03/12 10:47:40;;;;;;;;;;;20.60;99.90;;;;;;5072958;28;20271;-69
2022/03/12 10:50:12;;;;;;;;;;;20.60;99.90;;;;;;5072211;28;19912;-68
2022/03/12 10:52:42;;;;;;;;;;;20.60;99.90;;;;;;5072538;28;19916;-68
2022/03/12 10:55:14;;;;;;;;;;;20.60;99.90;;;;;;5072493;28;19922;-69
2022/03/12 10:57:41;;;;;;;;;;;20.60;99.90;;;;;;5072642;28;19915;-69
2022/03/12 11:00:11;;;;;;;;;;;20.60;99.90;;;;;;5072459;28;20424;-69
2022/03/12 11:02:38;;;;;;;;;;;20.50;99.90;;;;;;5072733;28;19908;-69
2022/03/12 11:05:04;;;;;;;;;;;20.50;99.90;;;;;;5072653;28;20282;-69
2022/03/12 11:07:31;;;;;;;;;;;20.50;99.90;;;;;;5072442;28;19908;-69
2022/03/12 11:09:58;;;;;;;;;;;20.50;99.90;;;;;;5072261;28;19932;-69
2022/03/12 11:12:35;;;;;;;;;;;20.50;99.90;;;;;;5072235;28;20019;-68
2022/03/12 11:15:15;;;;;;;;;;;20.60;99.90;;;;;;5072385;28;20053;-69
2022/03/12 11:17:43;;;;;;;;;;;20.50;99.90;;;;;;5071972;28;20360;-68
2022/03/12 11:20:17;;;;;;;;;;;20.50;99.90;;;;;;5072034;28;19912;-70
2022/03/12 11:22:48;;;;;;;;;;;20.40;99.90;;;;;;5072068;28;19991;-69
2022/03/12 11:25:19;;;;;;;;;;;20.40;99.90;;;;;;5072063;28;20366;-68
2022/03/12 11:27:49;;;;;;;;;;;20.40;99.90;;;;;;5072204;28;20354;-68
2022/03/12 11:30:22;;;;;;;;;;;20.40;99.90;;;;;;5072093;28;19908;-69
2022/03/12 11:33:05;;;;;;;;;;;20.40;99.90;;;;;;5072120;28;19916;-68
2022/03/12 11:35:36;;;;;;;;;;;20.40;99.90;;;;;;5072015;28;20329;-68
2022/03/12 11:38:13;;;;;;;;;;;20.40;99.90;;;;;;5072021;28;20397;-68
2022/03/12 11:40:43;;;;;;;;;;;20.30;99.90;;;;;;5072204;28;19912;-69
2022/03/12 11:43:27;;;;;;;;;;;20.30;99.90;;;;;;5075060;28;19909;-70
2022/03/12 11:45:55;;;;;;;;;;;20.30;99.90;;;;;;5076071;28;20317;-69
2022/03/12 11:48:23;;;;;;;;;;;20.30;99.90;;;;;;5075820;28;20502;-70
2022/03/12 11:50:50;;;;;;;;;;;20.30;99.90;;;;;;5075826;28;19916;-70
2022/03/12 11:53:17;;;;;;;;;;;20.30;99.90;;;;;;5075895;28;20007;-70
2022/03/12 11:55:48;;;;;;;;;;;20.30;99.90;;;;;;5075947;28;19916;-69
2022/03/12 11:58:15;;;;;;;;;;;20.30;99.90;;;;;;5075707;28;19915;-70
2022/03/12 12:00:44;;;;;;;;;;;20.20;99.90;;;;;;5075644;28;19908;-68
2022/03/12 12:03:13;;;;;;;;;;;20.20;99.90;;;;;;5075669;28;19915;-68
2022/03/12 12:05:43;;;;;;;;;;;20.10;99.90;;;;;;5075214;28;19908;-69
2022/03/12 12:08:12;;;;;;;;;;;20.10;99.90;;;;;;5075621;28;19999;-69
2022/03/12 12:10:42;;;;;;;;;;;20.00;99.90;;;;;;5075664;28;19959;-68
2022/03/12 12:13:10;;;;;;;;;;;19.90;99.90;;;;;;5075456;28;19913;-68
2022/03/12 12:15:38;;;;;;;;;;;20.00;99.90;;;;;;5075622;28;19908;-68
2022/03/12 12:18:06;;;;;;;;;;;19.90;99.90;;;;;;5057735;28;20360;-68
2022/03/12 12:20:33;;;;;;;;;;;20.00;99.90;;;;;;5075325;28;20321;-69
2022/03/12 12:23:00;;;;;;;;;;;20.00;99.90;;;;;;5075216;28;19908;-68
2022/03/12 12:25:31;;;;;;;;;;;19.90;99.90;;;;;;5075516;28;20350;-68
2022/03/12 12:27:58;;;;;;;;;;;19.90;99.90;;;;;;5075371;28;20359;-69
2022/03/12 12:30:43;;;;;;;;;;;19.90;99.90;;;;;;5075027;28;19955;-69
2022/03/12 12:33:17;;;;;;;;;;;19.90;99.90;;;;;;5075002;28;19921;-69
2022/03/12 12:35:48;;;;;;;;;;;19.90;99.90;;;;;;5075021;28;19913;-69
2022/03/12 12:38:18;;;;;;;;;;;19.90;99.90;;;;;;5074695;28;19908;-69
2022/03/12 12:40:47;;;;;;;;;;;19.90;99.90;;;;;;5074982;28;19913;-70
2022/03/12 12:43:14;;;;;;;;;;;19.90;99.90;;;;;;5075277;28;20408;-69
2022/03/12 12:45:53;;;;;;;;;;;19.90;99.90;;;;;;5074934;28;19915;-69
2022/03/12 12:48:31;;;;;;;;;;;19.90;99.90;;;;;;5074677;28;20366;-69
2022/03/12 12:51:07;;;;;;;;;;;19.90;99.90;;;;;;5074665;28;19912;-69
2022/03/12 12:53:40;;;;;;;;;;;19.90;99.90;;;;;;5073931;28;19941;-69
2022/03/12 12:56:30;;;;;;;;;;;19.90;99.90;;;;;;5074375;28;20291;-69
2022/03/12 12:59:01;;;;;;;;;;;19.90;99.90;;;;;;5061743;28;19982;-70
2022/03/12 13:01:34;;;;;;;;;;;19.90;99.90;;;;;;5074980;28;19947;-69
2022/03/12 13:04:03;;;;;;;;;;;19.90;99.90;;;;;;5074489;28;20007;-69
2022/03/12 13:06:43;;;;;;;;;;;19.90;99.90;;;;;;5074603;28;19931;-69
2022/03/12 13:09:11;;;;;;;;;;;19.90;99.90;;;;;;5074497;28;19951;-69
2022/03/12 13:11:47;;;;;;;;;;;19.90;99.90;;;;;;5074612;28;20274;-69
2022/03/12 13:14:18;;;;;;;;;;;19.80;99.90;;;;;;5074255;28;19924;-69
2022/03/12 13:16:58;;;;;;;;;;;19.80;99.90;;;;;;5074209;28;20294;-69
2022/03/12 13:19:30;;;;;;;;;;;19.80;99.90;;;;;;5074185;28;19916;-69
2022/03/12 13:22:01;;;;;;;;;;;19.70;99.90;;;;;;5074137;28;19920;-69
2022/03/12 13:24:32;;;;;;;;;;;19.70;99.90;;;;;;5074240;28;19931;-70
2022/03/12 13:27:02;;;;;;;;;;;19.70;99.90;;;;;;5074091;28;20445;-70
2022/03/12 13:29:29;;;;;;;;;;;19.70;99.90;;;;;;5073976;28;20374;-70
2022/03/12 13:31:56;;;;;;;;;;;19.70;99.90;;;;;;5074025;28;19935;-70
2022/03/12 13:34:25;;;;;;;;;;;19.70;99.90;;;;;;5073744;28;19963;-69
2022/03/12 13:36:59;;;;;;;;;;;19.70;99.90;;;;;;5073902;28;19909;-70
2022/03/12 13:39:28;;;;;;;;;;;19.70;99.90;;;;;;5073871;28;19995;-70
2022/03/12 13:41:55;;;;;;;;;;;19.70;99.90;;;;;;5073957;28;19954;-70
2022/03/12 13:44:22;;;;;;;;;;;19.60;99.90;;;;;;5073613;28;19952;-70
2022/03/12 13:46:50;;;;;;;;;;;19.70;99.90;;;;;;5073729;28;19947;-70
2022/03/12 13:49:18;;;;;;;;;;;19.60;99.90;;;;;;5073528;28;19934;-70
2022/03/12 13:51:46;;;;;;;;;;;19.60;99.90;;;;;;5073715;28;19908;-70
2022/03/12 13:54:14;;;;;;;;;;;19.60;99.90;;;;;;5073309;28;19916;-69
2022/03/12 13:56:41;;;;;;;;;;;19.70;99.90;;;;;;5073631;28;20259;-69
2022/03/12 13:59:10;;;;;;;;;;;19.60;99.90;;;;;;5073717;28;19913;-70
2022/03/12 14:01:38;;;;;;;;;;;19.60;99.90;;;;;;5073511;28;20374;-69
2022/03/12 14:04:06;;;;;;;;;;;19.60;99.90;;;;;;5073039;28;19920;-69
2022/03/12 14:06:35;;;;;;;;;;;19.50;99.90;;;;;;5072433;28;19999;-69
2022/03/12 14:09:04;;;;;;;;;;;19.50;99.90;;;;;;5073323;28;19916;-70
2022/03/12 14:11:47;;;;;;;;;;;19.50;99.90;;;;;;5073147;28;19977;-71
2022/03/12 14:14:14;;;;;;;;;;;19.50;99.90;;;;;;5073005;28;19922;-70
2022/03/12 14:16:53;;;;;;;;;;;19.50;99.90;;;;;;5073096;28;19951;-70
2022/03/12 14:19:21;;;;;;;;;;;19.50;99.90;;;;;;5072980;28;19914;-71
2022/03/12 14:21:53;;;;;;;;;;;19.40;99.90;;;;;;5073094;28;19909;-71
2022/03/12 14:24:22;;;;;;;;;;;19.40;99.90;;;;;;5072895;28;20361;-69